Time;durP1;ratioP1;P1;durP2;ratioP2;P2;SDS_P1;SDS_P2;PMS_P1;PMS_P2;Temp;Humidity;BMP_temperature;BMP_pressure;BME280_temperature;BME280_humidity;BME280_pressure;Samples;Min_cycle;Max_cycle;Signal;HPM_P1;HPM_P2
2022/07/27 00:01:06;;;;;;;7.55;3.08;;;13.90;99.90;;;;;;5117504;27;20522;-70
2022/07/27 00:03:32;;;;;;;3.10;2.28;;;13.90;99.90;;;;;;5120936;27;20126;-70
2022/07/27 00:05:58;;;;;;;7.18;2.42;;;13.90;99.90;;;;;;5126418;27;20445;-71
2022/07/27 00:08:23;;;;;;;8.93;3.38;;;13.90;99.90;;;;;;5148906;27;20442;-70
2022/07/27 00:10:50;;;;;;;7.18;2.55;;;13.90;99.90;;;;;;5150433;27;20046;-70
2022/07/27 00:13:17;;;;;;;9.98;3.40;;;13.90;99.90;;;;;;5150041;27;20091;-70
2022/07/27 00:15:42;;;;;;;5.65;2.83;;;13.90;99.90;;;;;;5117392;27;20440;-71
2022/07/27 00:18:08;;;;;;;7.10;3.10;;;13.90;99.90;;;;;;5120918;27;20045;-71
2022/07/27 00:20:36;;;;;;;6.88;2.75;;;13.90;99.90;;;;;;5149112;27;20045;-71
2022/07/27 00:23:02;;;;;;;10.52;2.67;;;13.90;99.90;;;;;;5142094;27;20043;-71
2022/07/27 00:25:27;;;;;;;4.47;3.17;;;13.90;99.90;;;;;;5138154;27;20043;-70
2022/07/27 00:27:55;;;;;;;6.65;3.15;;;13.90;99.90;;;;;;5143186;27;20075;-71
2022/07/27 00:30:21;;;;;;;3.55;2.10;;;14.00;99.90;;;;;;5136193;27;20500;-70
2022/07/27 00:32:47;;;;;;;4.93;2.38;;;14.00;99.90;;;;;;5142702;27;20031;-71
2022/07/27 00:35:13;;;;;;;7.03;2.83;;;14.00;99.90;;;;;;5128537;27;20053;-70
2022/07/27 00:37:40;;;;;;;4.18;2.42;;;14.00;99.90;;;;;;5148153;27;20057;-71
2022/07/27 00:40:07;;;;;;;12.48;3.70;;;14.00;99.90;;;;;;5149048;27;20053;-70
2022/07/27 00:42:33;;;;;;;9.00;2.85;;;14.00;99.90;;;;;;5142378;27;20065;-70
2022/07/27 00:44:59;;;;;;;2.92;2.30;;;14.00;99.90;;;;;;5147668;27;20503;-70
2022/07/27 00:47:26;;;;;;;6.95;2.70;;;14.10;99.90;;;;;;5113804;27;20122;-70
2022/07/27 00:49:52;;;;;;;2.85;2.25;;;14.10;99.90;;;;;;5095805;27;20074;-71
2022/07/27 00:52:18;;;;;;;5.50;3.08;;;14.10;99.90;;;;;;5127384;27;20031;-70
2022/07/27 00:54:46;;;;;;;9.82;3.35;;;14.10;99.90;;;;;;5147899;27;20491;-70
2022/07/27 00:57:13;;;;;;;10.50;3.28;;;14.10;99.90;;;;;;5122003;27;20051;-71
2022/07/27 00:59:39;;;;;;;5.13;3.05;;;14.10;99.90;;;;;;5134846;27;20062;-71
2022/07/27 01:02:06;;;;;;;6.80;2.90;;;14.10;99.90;;;;;;5150266;27;20047;-71
2022/07/27 01:04:32;;;;;;;8.73;2.60;;;14.00;99.90;;;;;;5146707;27;20043;-71
2022/07/27 01:06:58;;;;;;;6.05;3.22;;;14.00;99.90;;;;;;5100637;27;20055;-70
2022/07/27 01:12:13;;;;;;;3.80;2.97;;;14.10;99.90;;;;;;5141151;27;20043;-70
2022/07/27 01:14:39;;;;;;;7.63;3.08;;;14.10;99.90;;;;;;5143940;27;20039;-70
2022/07/27 01:17:05;;;;;;;5.05;2.40;;;14.10;99.90;;;;;;5125881;27;20055;-71
2022/07/27 01:19:31;;;;;;;4.00;2.95;;;14.10;99.90;;;;;;5125161;27;20053;-70
2022/07/27 01:21:57;;;;;;;3.80;2.28;;;14.10;99.90;;;;;;5123127;27;20394;-70
2022/07/27 01:24:23;;;;;;;5.30;3.15;;;14.10;99.90;;;;;;5119928;27;20038;-70
2022/07/27 01:26:49;;;;;;;3.65;2.70;;;14.10;99.90;;;;;;5130079;27;20154;-70
2022/07/27 01:29:15;;;;;;;7.35;2.63;;;14.10;99.90;;;;;;5149134;27;20113;-70
2022/07/27 01:31:41;;;;;;;7.75;3.38;;;14.10;99.90;;;;;;5129041;27;20139;-70
2022/07/27 01:34:06;;;;;;;4.97;3.05;;;14.00;99.90;;;;;;5137692;27;20039;-70
2022/07/27 01:36:32;;;;;;;2.90;2.40;;;14.00;99.90;;;;;;5123980;27;20034;-70
2022/07/27 01:38:57;;;;;;;6.78;3.60;;;13.90;99.90;;;;;;5107996;28;20146;-70
2022/07/27 01:41:23;;;;;;;9.88;4.03;;;13.90;99.90;;;;;;5116101;27;20552;-69
2022/07/27 01:43:49;;;;;;;12.60;2.60;;;13.90;99.90;;;;;;5130197;27;20126;-70
2022/07/27 01:46:15;;;;;;;9.35;3.60;;;13.80;99.90;;;;;;5119294;27;20043;-70
2022/07/27 01:48:41;;;;;;;9.35;3.38;;;13.80;99.90;;;;;;5144827;27;20082;-70
2022/07/27 01:51:06;;;;;;;13.25;3.13;;;13.80;99.90;;;;;;5095513;28;20088;-70
2022/07/27 01:53:32;;;;;;;3.20;2.90;;;13.80;99.90;;;;;;5145031;27;20035;-70
2022/07/27 01:55:58;;;;;;;4.45;2.58;;;13.80;99.90;;;;;;5126806;28;20476;-70
2022/07/27 01:58:24;;;;;;;5.88;3.25;;;13.70;99.90;;;;;;5125794;27;20050;-70
2022/07/27 02:00:50;;;;;;;4.82;2.85;;;13.70;99.90;;;;;;5129818;27;20407;-70
2022/07/27 02:03:15;;;;;;;7.68;2.75;;;13.70;99.90;;;;;;5129897;27;20042;-70
2022/07/27 02:05:41;;;;;;;4.25;2.88;;;13.70;99.90;;;;;;5115291;27;20159;-70
2022/07/27 02:08:08;;;;;;;6.68;2.58;;;13.70;99.90;;;;;;5124893;28;20086;-70
2022/07/27 02:12:34;;;;;;;9.90;3.80;;;13.70;99.90;;;;;;5127095;27;20050;-70
2022/07/27 02:13:23;;;;;;;10.38;3.45;;;13.70;99.90;;;;;;5120864;27;20136;-70
2022/07/27 02:15:48;;;;;;;6.15;3.95;;;13.60;99.90;;;;;;5136950;27;20050;-70
2022/07/27 02:18:14;;;;;;;3.92;2.92;;;13.60;99.90;;;;;;5152427;27;20039;-70
2022/07/27 02:20:41;;;;;;;6.13;2.83;;;13.60;99.90;;;;;;5138574;27;20047;-70
2022/07/27 02:23:07;;;;;;;7.63;3.40;;;13.50;99.90;;;;;;5132554;27;20081;-70
2022/07/27 02:25:34;;;;;;;5.13;2.90;;;13.40;99.90;;;;;;5140232;27;20071;-70
2022/07/27 02:28:00;;;;;;;4.28;3.13;;;13.40;99.90;;;;;;5148295;27;20114;-69
2022/07/27 02:30:26;;;;;;;3.30;2.20;;;13.30;99.90;;;;;;5129120;27;20118;-70
2022/07/27 02:32:52;;;;;;;5.75;2.50;;;13.30;99.90;;;;;;5123660;27;20042;-70
2022/07/27 02:35:17;;;;;;;11.07;3.00;;;13.20;99.90;;;;;;5109045;27;20047;-70
2022/07/27 02:37:43;;;;;;;3.85;2.90;;;13.20;99.90;;;;;;5113132;27;20084;-70
2022/07/27 02:40:09;;;;;;;3.97;2.40;;;13.20;99.90;;;;;;5148012;27;20050;-70
2022/07/27 02:42:35;;;;;;;7.57;3.38;;;13.10;99.90;;;;;;5149286;27;20125;-70
2022/07/27 02:45:01;;;;;;;4.45;2.65;;;13.00;99.90;;;;;;5122601;27;20130;-71
2022/07/27 02:47:26;;;;;;;5.47;3.17;;;13.00;99.90;;;;;;5137770;27;20069;-71
2022/07/27 02:49:52;;;;;;;3.83;3.42;;;12.90;99.90;;;;;;5132263;27;20054;-71
2022/07/27 02:52:17;;;;;;;4.55;2.55;;;12.90;99.90;;;;;;5125087;27;20038;-72
2022/07/27 02:54:43;;;;;;;6.47;3.25;;;12.80;99.90;;;;;;5119714;27;20550;-71
2022/07/27 02:57:09;;;;;;;6.85;3.65;;;12.80;99.90;;;;;;5117831;27;20089;-72
2022/07/27 02:59:34;;;;;;;10.35;3.25;;;12.70;99.90;;;;;;5129652;27;20039;-71
2022/07/27 03:02:00;;;;;;;5.53;3.00;;;12.70;99.90;;;;;;5128093;27;20054;-72
2022/07/27 03:04:26;;;;;;;3.20;2.53;;;12.70;99.90;;;;;;5121998;27;20078;-72
2022/07/27 03:06:51;;;;;;;8.25;3.33;;;12.60;99.90;;;;;;5132142;27;20111;-73
2022/07/27 03:09:17;;;;;;;5.05;2.78;;;12.60;99.90;;;;;;5132461;27;20057;-72
2022/07/27 03:11:43;;;;;;;4.93;3.03;;;12.60;99.90;;;;;;5131139;27;20126;-72
2022/07/27 03:14:08;;;;;;;4.35;2.70;;;12.60;99.90;;;;;;5131830;27;20542;-72
2022/07/27 03:16:34;;;;;;;4.82;2.80;;;12.50;99.90;;;;;;5133634;27;20127;-72
2022/07/27 03:19:01;;;;;;;5.00;2.95;;;12.50;99.90;;;;;;5126752;27;20066;-72
2022/07/27 03:21:27;;;;;;;8.18;3.25;;;12.50;99.90;;;;;;5132804;27;20107;-73
2022/07/27 03:23:52;;;;;;;3.50;3.03;;;12.40;99.90;;;;;;5130076;27;20039;-73
2022/07/27 03:26:18;;;;;;;5.15;2.70;;;12.40;99.90;;;;;;5131775;27;20130;-73
2022/07/27 03:28:44;;;;;;;4.13;3.42;;;12.40;99.90;;;;;;5117082;27;20483;-72
2022/07/27 03:31:10;;;;;;;11.82;3.17;;;12.30;99.90;;;;;;5121216;27;20057;-72
2022/07/27 03:33:36;;;;;;;4.07;3.22;;;12.30;99.90;;;;;;5132821;27;20050;-72
2022/07/27 03:36:02;;;;;;;6.63;2.88;;;12.30;99.90;;;;;;5127147;27;20051;-72
2022/07/27 03:38:28;;;;;;;6.68;3.67;;;12.20;99.90;;;;;;5131675;27;20035;-72
2022/07/27 03:40:54;;;;;;;4.72;3.15;;;12.20;99.90;;;;;;5132161;27;20154;-72
2022/07/27 03:43:20;;;;;;;6.35;3.80;;;12.20;99.90;;;;;;5110960;27;20126;-72
2022/07/27 03:45:45;;;;;;;9.05;3.90;;;12.10;99.90;;;;;;5120055;27;20480;-72
2022/07/27 03:48:11;;;;;;;4.88;3.45;;;12.10;99.90;;;;;;5117863;27;20071;-72
2022/07/27 03:50:37;;;;;;;9.70;3.35;;;12.10;99.90;;;;;;5129302;27;20051;-71
2022/07/27 03:53:02;;;;;;;6.35;3.63;;;12.10;99.90;;;;;;5131133;27;20082;-72
2022/07/27 03:55:29;;;;;;;5.95;3.80;;;12.00;99.90;;;;;;5118405;27;20154;-73
2022/07/27 03:57:55;;;;;;;3.90;3.30;;;12.00;99.90;;;;;;5125038;27;20090;-72
2022/07/27 04:00:20;;;;;;;4.43;3.47;;;12.00;99.90;;;;;;5106914;27;20157;-72
2022/07/27 04:02:46;;;;;;;11.30;4.25;;;12.10;99.90;;;;;;5131741;27;20034;-71
2022/07/27 04:05:12;;;;;;;5.70;3.60;;;12.10;99.90;;;;;;5126162;27;20039;-71
2022/07/27 04:07:39;;;;;;;4.53;3.30;;;12.10;99.90;;;;;;5126984;27;20108;-71
2022/07/27 04:10:05;;;;;;;6.25;3.60;;;12.10;99.90;;;;;;5112487;27;20051;-71
2022/07/27 04:12:34;;;;;;;4.80;3.55;;;12.20;99.90;;;;;;5139700;27;20038;-71
2022/07/27 04:14:59;;;;;;;8.70;4.40;;;12.20;99.90;;;;;;5151001;27;20135;-71
2022/07/27 04:17:25;;;;;;;4.18;3.58;;;12.30;99.90;;;;;;5124789;27;20055;-72
2022/07/27 04:19:51;;;;;;;7.40;4.68;;;12.30;99.90;;;;;;5130814;27;20150;-71
2022/07/27 04:22:16;;;;;;;11.98;4.43;;;12.30;99.90;;;;;;5120779;27;20090;-72
2022/07/27 04:24:42;;;;;;;7.47;4.45;;;12.30;99.90;;;;;;5130058;27;20137;-72
2022/07/27 04:27:08;;;;;;;8.18;4.25;;;12.40;99.90;;;;;;5122769;27;20039;-71
2022/07/27 04:29:34;;;;;;;8.73;4.72;;;12.50;99.90;;;;;;5115558;27;20061;-71
2022/07/27 04:31:59;;;;;;;5.82;4.35;;;12.50;99.90;;;;;;5119976;27;20403;-69
2022/07/27 04:34:25;;;;;;;14.82;5.43;;;12.50;99.90;;;;;;5144218;27;20043;-71
2022/07/27 04:36:51;;;;;;;11.48;4.25;;;12.60;99.90;;;;;;5146391;27;20045;-71
2022/07/27 04:39:16;;;;;;;7.18;4.05;;;12.70;99.90;;;;;;5122201;27;20042;-70
2022/07/27 04:41:42;;;;;;;8.32;4.10;;;12.60;99.90;;;;;;5134449;27;20479;-71
2022/07/27 04:44:08;;;;;;;8.60;4.10;;;12.70;99.90;;;;;;5121922;27;20047;-71
2022/07/27 04:46:33;;;;;;;11.55;4.85;;;12.80;99.90;;;;;;5131356;27;20641;-71
2022/07/27 04:48:59;;;;;;;13.57;3.97;;;12.80;99.90;;;;;;5130536;27;20065;-71
2022/07/27 04:51:25;;;;;;;6.25;3.85;;;12.80;99.90;;;;;;5124747;27;20051;-71
2022/07/27 04:53:51;;;;;;;8.93;5.13;;;12.90;99.90;;;;;;5145403;27;20049;-71
2022/07/27 04:56:16;;;;;;;8.45;5.07;;;12.90;99.90;;;;;;5126721;27;20114;-71
2022/07/27 04:58:42;;;;;;;16.95;4.78;;;12.90;99.90;;;;;;5122188;27;20054;-71
2022/07/27 05:01:10;;;;;;;16.45;5.20;;;13.00;99.90;;;;;;5147245;27;20034;-71
2022/07/27 05:03:36;;;;;;;7.15;3.78;;;13.10;99.90;;;;;;5122930;27;20074;-70
2022/07/27 05:06:02;;;;;;;8.15;4.68;;;13.10;99.90;;;;;;5144851;27;20449;-71
2022/07/27 05:08:28;;;;;;;13.85;5.28;;;13.10;99.90;;;;;;5143417;27;20060;-71
2022/07/27 05:10:54;;;;;;;9.30;4.05;;;13.20;99.90;;;;;;5130169;27;20115;-71
2022/07/27 05:13:20;;;;;;;9.18;4.10;;;13.20;99.90;;;;;;5130307;27;20043;-71
2022/07/27 05:15:46;;;;;;;6.00;3.53;;;13.30;99.90;;;;;;5147711;27;20120;-71
2022/07/27 05:18:11;;;;;;;6.38;3.97;;;13.40;99.90;;;;;;5122014;27;20055;-70
2022/07/27 05:20:37;;;;;;;8.82;4.72;;;13.40;99.90;;;;;;5130700;27;20051;-71
2022/07/27 05:23:02;;;;;;;14.82;4.88;;;13.40;99.90;;;;;;5134755;27;20043;-71
2022/07/27 05:25:28;;;;;;;7.35;4.13;;;13.50;99.90;;;;;;5139194;27;20861;-71
2022/07/27 05:27:54;;;;;;;5.82;3.53;;;13.50;99.90;;;;;;5127581;27;20053;-71
2022/07/27 05:30:21;;;;;;;8.25;3.95;;;13.60;99.90;;;;;;5123368;27;20035;-72
2022/07/27 05:32:47;;;;;;;16.33;4.00;;;13.70;99.90;;;;;;5114907;27;20503;-72
2022/07/27 05:35:12;;;;;;;8.85;4.45;;;13.70;99.90;;;;;;5126560;27;20134;-73
2022/07/27 05:37:39;;;;;;;9.85;4.20;;;13.80;99.90;;;;;;5124639;27;20257;-72
2022/07/27 05:40:07;;;;;;;10.30;3.88;;;13.90;99.90;;;;;;5143013;27;20041;-72
2022/07/27 05:42:33;;;;;;;11.73;3.83;;;14.00;99.90;;;;;;5121361;27;20075;-72
2022/07/27 05:44:58;;;;;;;15.50;4.05;;;14.00;99.90;;;;;;5123647;27;20100;-71
2022/07/27 05:47:24;;;;;;;5.03;3.30;;;14.10;99.90;;;;;;5124956;27;20047;-70
2022/07/27 05:49:50;;;;;;;16.02;3.97;;;14.20;99.90;;;;;;5146109;27;20038;-71
2022/07/27 05:52:15;;;;;;;11.70;3.75;;;14.30;99.90;;;;;;5151930;27;20039;-71
2022/07/27 05:54:42;;;;;;;7.63;3.83;;;14.40;99.90;;;;;;5134374;27;20056;-71
2022/07/27 05:57:08;;;;;;;5.30;3.70;;;14.40;99.90;;;;;;5134278;27;20182;-71
2022/07/27 05:59:35;;;;;;;9.77;3.47;;;14.50;99.90;;;;;;5109500;27;20126;-71
2022/07/27 06:02:02;;;;;;;6.80;3.42;;;14.50;99.90;;;;;;5128003;27;20078;-73
2022/07/27 06:04:28;;;;;;;6.45;3.60;;;14.60;99.90;;;;;;5120258;27;20503;-72
2022/07/27 06:09:39;;;;;;;7.72;3.10;;;14.70;99.90;;;;;;5123672;27;20057;-72
2022/07/27 06:12:05;;;;;;;7.18;3.50;;;14.80;99.90;;;;;;5137123;27;20043;-72
2022/07/27 06:14:31;;;;;;;7.68;3.63;;;14.90;99.90;;;;;;5146318;27;20404;-72
2022/07/27 06:16:57;;;;;;;12.38;4.00;;;14.90;99.90;;;;;;5151244;27;20091;-71
2022/07/27 06:19:23;;;;;;;10.68;3.85;;;15.00;99.90;;;;;;5151071;27;20035;-72
2022/07/27 06:21:49;;;;;;;7.95;3.33;;;15.00;99.90;;;;;;5124404;27;20047;-72
2022/07/27 06:24:14;;;;;;;5.53;3.28;;;15.10;99.90;;;;;;5145846;27;20085;-72
2022/07/27 06:26:40;;;;;;;4.22;3.42;;;15.10;99.90;;;;;;5120481;27;20499;-73
2022/07/27 06:29:06;;;;;;;22.60;4.90;;;15.10;99.90;;;;;;5153000;27;20499;-73
2022/07/27 06:31:32;;;;;;;10.52;3.70;;;15.10;99.90;;;;;;5144131;27;20071;-73
2022/07/27 06:33:58;;;;;;;9.48;3.35;;;15.10;99.90;;;;;;5121166;27;20074;-73
2022/07/27 06:36:24;;;;;;;4.57;2.83;;;15.20;99.90;;;;;;5128520;27;20082;-73
2022/07/27 06:38:50;;;;;;;6.47;3.40;;;15.20;99.90;;;;;;5145995;27;20086;-73
2022/07/27 06:41:16;;;;;;;7.13;3.53;;;15.20;99.90;;;;;;5148020;27;20069;-73
2022/07/27 06:43:41;;;;;;;5.15;3.78;;;15.30;99.90;;;;;;5151901;27;20043;-73
2022/07/27 06:46:13;;;;;;;10.68;3.97;;;15.30;99.90;;;;;;5150830;27;20464;-74
2022/07/27 06:48:39;;;;;;;8.25;3.83;;;15.30;99.90;;;;;;5135913;27;20397;-73
2022/07/27 06:51:05;;;;;;;8.75;3.55;;;15.20;99.90;;;;;;5130883;27;20043;-72
2022/07/27 06:53:31;;;;;;;5.10;2.97;;;15.20;99.90;;;;;;5131965;27;20043;-73
2022/07/27 06:56:02;;;;;;;12.85;3.78;;;15.20;99.90;;;;;;5133606;27;20043;-71
2022/07/27 06:58:29;;;;;;;11.02;3.58;;;15.10;99.90;;;;;;5119429;27;20496;-72
2022/07/27 07:00:56;;;;;;;6.97;3.40;;;15.10;99.90;;;;;;5132785;27;20054;-71
2022/07/27 07:03:22;;;;;;;7.53;2.78;;;15.00;99.90;;;;;;5120069;27;20069;-71
2022/07/27 07:05:47;;;;;;;7.07;2.72;;;15.00;99.90;;;;;;5127944;27;20476;-71
2022/07/27 07:08:13;;;;;;;8.85;2.70;;;15.00;99.90;;;;;;5142489;27;20403;-71
2022/07/27 07:10:44;;;;;;;7.55;3.45;;;15.00;99.90;;;;;;5114511;27;20530;-71
2022/07/27 07:13:10;;;;;;;8.65;3.03;;;15.10;99.90;;;;;;5130395;27;20499;-71
2022/07/27 07:15:37;;;;;;;4.70;3.03;;;15.10;99.90;;;;;;5146417;27;20088;-71
2022/07/27 07:18:05;;;;;;;12.88;4.38;;;15.20;99.90;;;;;;5132441;27;20095;-72
2022/07/27 07:20:31;;;;;;;10.43;3.35;;;15.20;99.90;;;;;;5126601;27;20566;-72
2022/07/27 07:22:57;;;;;;;4.20;2.30;;;15.30;99.90;;;;;;5103956;27;20054;-72
2022/07/27 07:25:23;;;;;;;6.43;2.75;;;15.40;99.90;;;;;;5102967;27;20044;-70
2022/07/27 07:27:49;;;;;;;7.55;3.65;;;15.40;99.90;;;;;;5131766;27;20050;-70
2022/07/27 07:30:15;;;;;;;6.43;3.35;;;15.40;99.90;;;;;;5125934;27;20126;-72
2022/07/27 07:32:41;;;;;;;6.00;2.85;;;15.40;99.90;;;;;;5111751;27;20046;-71
2022/07/27 07:35:07;;;;;;;8.65;3.20;;;15.50;99.90;;;;;;5149837;27;20039;-70
2022/07/27 07:37:33;;;;;;;8.43;3.45;;;15.60;99.90;;;;;;5149540;27;20123;-70
2022/07/27 07:39:58;;;;;;;4.57;2.65;;;15.70;99.90;;;;;;5145177;27;20574;-68
2022/07/27 07:42:25;;;;;;;7.38;2.80;;;15.90;99.90;;;;;;5121668;27;20042;-69
2022/07/27 07:44:50;;;;;;;6.97;3.42;;;15.90;99.90;;;;;;5127772;27;20122;-68
2022/07/27 07:47:16;;;;;;;3.95;2.92;;;16.00;99.90;;;;;;5141229;27;20117;-69
2022/07/27 07:49:42;;;;;;;6.38;2.45;;;16.30;99.90;;;;;;5146549;27;20480;-69
2022/07/27 07:52:08;;;;;;;10.88;2.95;;;16.40;99.90;;;;;;5146570;27;20055;-69
2022/07/27 07:54:34;;;;;;;5.85;2.60;;;16.50;99.90;;;;;;5145133;27;20062;-69
2022/07/27 07:57:00;;;;;;;4.93;2.33;;;16.70;99.90;;;;;;5143211;27;20499;-69
2022/07/27 07:59:25;;;;;;;5.78;2.25;;;16.80;99.90;;;;;;5120866;27;20487;-69
2022/07/27 08:01:53;;;;;;;4.93;2.38;;;17.00;99.90;;;;;;5144546;27;20047;-70
2022/07/27 08:04:19;;;;;;;5.47;2.80;;;17.30;99.90;;;;;;5125938;27;20043;-70
2022/07/27 08:06:44;;;;;;;8.70;2.90;;;17.50;99.90;;;;;;5122379;27;20058;-71
2022/07/27 08:09:11;;;;;;;11.25;2.85;;;17.90;99.90;;;;;;5148551;27;20404;-71
2022/07/27 08:11:39;;;;;;;5.95;3.15;;;18.50;99.90;;;;;;5118343;27;20925;-70
2022/07/27 08:14:05;;;;;;;11.80;2.65;;;18.70;99.90;;;;;;5142161;27;20526;-71
2022/07/27 08:16:30;;;;;;;12.50;2.83;;;19.20;99.90;;;;;;5142919;27;20039;-71
2022/07/27 08:18:56;;;;;;;6.63;2.47;;;19.30;99.90;;;;;;5142509;27;20046;-70
2022/07/27 08:21:22;;;;;;;7.78;1.98;;;19.50;99.90;;;;;;5135310;27;20039;-71
2022/07/27 08:23:47;;;;;;;5.65;1.77;;;19.80;99.90;;;;;;5140429;27;20076;-73
2022/07/27 08:26:13;;;;;;;5.70;2.75;;;20.00;99.90;;;;;;5149288;27;20035;-73
2022/07/27 08:28:39;;;;;;;4.30;2.03;;;20.10;99.90;;;;;;5140415;27;20050;-72
2022/07/27 08:31:04;;;;;;;4.88;2.22;;;20.30;99.90;;;;;;5136413;27;20078;-71
2022/07/27 08:33:30;;;;;;;6.78;2.80;;;20.50;99.90;;;;;;5135602;27;20121;-71
2022/07/27 08:35:58;;;;;;;5.78;2.03;;;20.70;99.90;;;;;;5149575;27;20073;-71
2022/07/27 08:38:26;;;;;;;5.72;2.00;;;20.80;99.90;;;;;;5143490;27;20504;-70
2022/07/27 08:40:53;;;;;;;;;;;20.80;99.90;;;;;;5133508;27;20050;-70
2022/07/27 08:43:19;;;;;;;7.47;2.45;;;20.90;99.90;;;;;;5139438;27;20009;-71
2022/07/27 08:45:54;;;;;;;8.57;2.75;;;21.10;99.90;;;;;;5148737;27;20042;-68
2022/07/27 08:48:22;;;;;;;6.95;2.00;;;21.30;99.90;;;;;;5125011;27;20541;-68
2022/07/27 08:50:48;;;;;;;7.13;2.45;;;21.10;99.90;;;;;;5137396;27;20050;-68
2022/07/27 08:53:15;;;;;;;4.97;2.38;;;21.00;99.90;;;;;;5126635;27;20038;-69
2022/07/27 08:55:46;;;;;;;9.57;2.60;;;20.70;99.90;;;;;;5130365;27;20126;-69
2022/07/27 08:58:13;;;;;;;4.93;2.25;;;20.10;99.90;;;;;;5148560;27;20567;-72
2022/07/27 09:00:43;;;;;;;9.60;2.93;;;19.80;99.90;;;;;;5122547;27;20510;-70
2022/07/27 09:03:11;;;;;;;5.28;2.65;;;19.60;99.90;;;;;;5129323;27;20038;-70
2022/07/27 09:05:44;;;;;;;8.48;2.60;;;19.20;99.90;;;;;;5143044;27;20043;-70
2022/07/27 09:08:15;;;;;;;9.15;2.65;;;19.10;99.90;;;;;;5129608;27;20141;-71
2022/07/27 09:10:42;;;;;;;8.05;2.47;;;18.90;99.90;;;;;;5098945;27;20034;-71
2022/07/27 09:13:22;;;;;;;6.72;2.40;;;18.60;99.90;;;;;;5130269;27;20042;-71
2022/07/27 09:15:51;;;;;;;7.70;3.42;;;18.40;99.90;;;;;;5122456;27;20057;-71
2022/07/27 09:18:22;;;;;;;9.85;2.60;;;18.30;99.90;;;;;;5110090;27;20510;-72
2022/07/27 09:21:17;;;;;;;5.95;2.80;;;18.20;99.90;;;;;;5109894;27;20043;-72
2022/07/27 09:23:47;;;;;;;5.30;3.15;;;18.10;99.90;;;;;;5122988;27;20129;-72
2022/07/27 09:26:16;;;;;;;3.83;2.85;;;18.00;99.90;;;;;;5109149;27;20070;-72
2022/07/27 09:28:42;;;;;;;6.85;3.03;;;18.00;99.90;;;;;;5120136;27;20053;-70
2022/07/27 09:31:13;;;;;;;6.38;2.55;;;18.00;99.90;;;;;;5132028;27;20253;-69
2022/07/27 09:33:45;;;;;;;7.97;3.63;;;18.10;99.90;;;;;;5132256;27;20081;-70
2022/07/27 09:36:12;;;;;;;6.15;3.05;;;18.10;99.90;;;;;;5142260;27;20046;-70
2022/07/27 09:38:48;;;;;;;8.68;3.78;;;18.00;99.90;;;;;;5119909;27;20051;-70
2022/07/27 09:41:14;;;;;;;6.50;3.10;;;18.00;99.90;;;;;;5144832;27;20035;-68
2022/07/27 09:43:51;;;;;;;5.78;3.53;;;17.90;99.90;;;;;;5139950;27;20518;-68
2022/07/27 09:46:38;;;;;;;8.05;2.83;;;17.90;99.90;;;;;;5139809;27;20047;-69
2022/07/27 09:49:05;;;;;;;6.20;3.03;;;18.10;99.90;;;;;;5140000;27;20043;-69
2022/07/27 09:51:32;;;;;;;6.28;3.30;;;18.10;99.90;;;;;;5136373;27;20098;-69
2022/07/27 09:54:04;;;;;;;3.78;2.75;;;18.40;99.90;;;;;;5139180;27;20095;-69
2022/07/27 09:56:31;;;;;;;5.72;2.17;;;18.70;99.90;;;;;;5137098;27;20042;-69
2022/07/27 09:58:59;;;;;;;7.60;2.67;;;19.00;99.90;;;;;;5145699;27;20098;-68
2022/07/27 10:01:27;;;;;;;6.57;2.65;;;19.10;99.90;;;;;;5144954;27;20047;-69
2022/07/27 10:03:59;;;;;;;5.38;1.92;;;19.20;99.90;;;;;;5113502;27;20058;-69
2022/07/27 10:06:26;;;;;;;5.20;2.10;;;19.40;99.90;;;;;;5128243;27;20046;-69
2022/07/27 10:08:53;;;;;;;12.43;2.13;;;19.40;99.90;;;;;;5145283;27;20506;-71
2022/07/27 10:11:21;;;;;;;7.50;2.13;;;19.40;99.90;;;;;;5137140;27;20610;-69
2022/07/27 10:13:49;;;;;;;5.13;1.88;;;19.40;99.90;;;;;;5142577;27;20038;-69
2022/07/27 10:16:20;;;;;;;8.32;2.42;;;19.40;99.90;;;;;;5146612;27;20042;-69
2022/07/27 10:19:04;;;;;;;8.85;2.58;;;19.50;99.90;;;;;;5129728;27;20081;-69
2022/07/27 10:21:32;;;;;;;3.17;1.98;;;19.60;99.90;;;;;;5108602;28;20046;-70
2022/07/27 10:24:12;;;;;;;6.25;2.00;;;19.70;99.90;;;;;;5130394;27;20051;-72
2022/07/27 10:26:41;;;;;;;3.83;2.00;;;19.60;99.90;;;;;;5119633;28;20776;-72
2022/07/27 10:29:12;;;;;;;2.85;1.75;;;19.70;99.90;;;;;;5121084;27;20122;-71
2022/07/27 10:31:59;;;;;;;4.78;2.13;;;19.60;99.90;;;;;;5126968;27;20053;-72
2022/07/27 10:34:42;;;;;;;2.25;1.40;;;19.70;99.90;;;;;;5119320;27;20073;-71
2022/07/27 10:37:14;;;;;;;8.77;2.45;;;19.90;99.90;;;;;;5123216;27;20103;-69
2022/07/27 10:42:40;;;;;;;4.85;2.15;;;20.10;99.90;;;;;;5125079;27;20096;-69
2022/07/27 10:45:10;;;;;;;5.32;2.53;;;20.30;99.90;;;;;;5125958;27;20047;-68
2022/07/27 10:47:43;;;;;;;3.38;2.20;;;20.40;99.90;;;;;;5136256;27;20442;-69
2022/07/27 10:50:15;;;;;;;5.28;2.35;;;20.60;99.90;;;;;;5132398;27;20103;-70
2022/07/27 10:53:02;;;;;;;6.18;2.30;;;20.70;99.90;;;;;;5122030;27;20050;-69
2022/07/27 10:55:31;;;;;;;4.55;2.45;;;20.70;99.90;;;;;;5149551;27;20046;-69
2022/07/27 10:58:08;;;;;;;3.65;1.60;;;20.60;99.90;;;;;;5150451;27;20069;-68
2022/07/27 11:00:59;;;;;;;4.32;2.33;;;20.70;99.90;;;;;;5129347;27;20483;-68
2022/07/27 11:03:32;;;;;;;3.80;2.05;;;20.90;99.90;;;;;;5116740;27;20491;-68
2022/07/27 11:06:11;;;;;;;11.15;2.95;;;21.00;99.90;;;;;;5123161;27;20096;-67
2022/07/27 11:08:44;;;;;;;2.83;1.95;;;21.00;99.90;;;;;;5141452;27;20049;-68
2022/07/27 11:11:16;;;;;;;9.15;2.53;;;21.00;99.90;;;;;;5145016;27;20035;-68
2022/07/27 11:13:42;;;;;;;7.47;2.28;;;20.90;99.50;;;;;;5147941;27;20101;-69
2022/07/27 11:16:09;;;;;;;5.13;1.90;;;20.70;99.90;;;;;;5148478;27;20063;-68
2022/07/27 11:18:38;;;;;;;3.38;1.40;;;20.50;99.90;;;;;;5132576;27;20421;-68
2022/07/27 11:21:24;;;;;;;4.65;2.35;;;20.50;99.30;;;;;;5147028;27;20057;-68
2022/07/27 11:23:56;;;;;;;4.28;2.10;;;20.50;99.40;;;;;;5143726;27;20457;-70
2022/07/27 11:26:23;;;;;;;6.18;2.35;;;20.50;99.90;;;;;;5150290;27;20053;-71
2022/07/27 11:28:50;;;;;;;;;;;20.50;99.90;;;;;;5123216;27;20143;-70
2022/07/27 11:31:16;;;;;;;3.63;1.70;;;20.50;98.00;;;;;;5144542;27;20467;-69
2022/07/27 11:33:54;;;;;;;4.60;1.98;;;20.50;99.90;;;;;;5142106;27;20058;-69
2022/07/27 11:36:20;;;;;;;4.40;2.00;;;20.60;97.70;;;;;;5139796;27;20096;-71
2022/07/27 11:38:52;;;;;;;4.35;2.15;;;20.70;98.20;;;;;;5134726;27;20039;-72
2022/07/27 11:41:36;;;;;;;3.53;2.40;;;20.80;95.90;;;;;;5137655;27;20051;-70
2022/07/27 11:44:08;;;;;;;3.25;2.03;;;20.80;94.10;;;;;;5138761;27;20051;-70
2022/07/27 11:46:43;;;;;;;4.78;2.03;;;20.90;97.30;;;;;;5131747;27;20043;-72
2022/07/27 11:49:25;;;;;;;2.25;1.60;;;20.90;93.30;;;;;;5150393;27;20134;-72
2022/07/27 11:51:52;;;;;;;2.92;1.60;;;20.90;89.20;;;;;;5136533;27;20063;-72
2022/07/27 11:54:29;;;;;;;3.15;1.77;;;20.90;92.40;;;;;;5132809;27;20031;-72
2022/07/27 11:57:01;;;;;;;4.90;1.88;;;20.80;86.60;;;;;;5129818;27;20717;-72
2022/07/27 11:59:29;;;;;;;4.05;1.80;;;20.80;92.80;;;;;;5138416;27;20515;-71
2022/07/27 12:01:57;;;;;;;;;;;20.60;93.10;;;;;;5125320;27;20137;-71
2022/07/27 12:04:27;;;;;;;4.90;1.70;;;20.60;79.30;;;;;;5130769;27;19919;-72
2022/07/27 12:07:09;;;;;;;3.63;1.95;;;20.60;91.80;;;;;;5147003;27;20073;-72
2022/07/27 12:09:55;;;;;;;6.60;1.70;;;20.70;79.10;;;;;;5112789;27;20089;-71
2022/07/27 12:12:23;;;;;;;2.53;1.48;;;20.60;84.40;;;;;;5147799;27;20049;-72
2022/07/27 12:14:55;;;;;;;4.28;1.83;;;20.60;80.80;;;;;;5110616;27;20051;-72
2022/07/27 12:17:35;;;;;;;2.05;1.45;;;20.70;85.50;;;;;;5119607;27;20054;-72
2022/07/27 12:20:13;;;;;;;5.88;2.33;;;20.70;80.20;;;;;;5120771;27;20047;-72
2022/07/27 12:22:49;;;;;;;2.58;1.83;;;20.60;79.20;;;;;;5120244;27;20050;-71
2022/07/27 12:25:17;;;;;;;2.25;1.58;;;20.70;85.10;;;;;;5149647;27;20039;-73
2022/07/27 12:28:03;;;;;;;3.30;1.75;;;20.70;89.10;;;;;;5116642;27;20094;-70
2022/07/27 12:30:43;;;;;;;6.38;1.98;;;20.90;86.10;;;;;;5117721;27;20383;-74
2022/07/27 12:33:29;;;;;;;4.85;1.50;;;21.00;83.50;;;;;;5129639;27;20039;-74
2022/07/27 12:35:56;;;;;;;1.85;1.15;;;20.90;78.50;;;;;;5130418;27;20060;-75
2022/07/27 12:38:22;;;;;;;1.63;1.27;;;20.90;84.50;;;;;;5130293;27;20039;-74
2022/07/27 12:40:54;;;;;;;1.90;1.45;;;20.80;80.10;;;;;;5125757;27;20052;-74
2022/07/27 12:43:23;;;;;;;3.97;1.80;;;21.00;82.10;;;;;;5125609;27;20282;-74
2022/07/27 12:45:51;;;;;;;3.10;1.35;;;21.20;77.50;;;;;;5131045;27;20433;-73
2022/07/27 12:48:22;;;;;;;3.22;1.60;;;21.50;79.80;;;;;;5129999;27;20567;-74
2022/07/27 12:50:58;;;;;;;3.22;2.05;;;21.70;77.00;;;;;;5125067;27;20114;-72
2022/07/27 12:53:23;;;;;;;3.50;2.00;;;21.80;73.30;;;;;;5130021;27;20047;-73
2022/07/27 12:55:49;;;;;;;3.88;1.58;;;21.90;73.90;;;;;;5129738;27;20058;-72
2022/07/27 12:58:15;;;;;;;3.95;1.60;;;21.80;74.00;;;;;;5129808;27;20091;-73